WAPP/AMQ METAR and TAF weather

Enter ICAO airport designator
Station Type Date Time Source
WAPP METAR 2019/05/26 23:00 UTC NOAA

WAPP 262300Z VRB02KT 9999 SCT019 26/25 Q1010 NOSIG


Station Type Date Time Source
WAPP Decoded METAR 2019/05/26 23:00 UTC NOAA

Ambon / Pattimura, Indonesia (WAPP) 03-42S 128-05E 12M
May 26, 2019 - 07:00 PM EDT / 2019.05.26 2300 UTC
Wind: Variable at 2 MPH (2 KT):0
Visibility: greater than 7 mile(s):0
Sky conditions: partly cloudy
Temperature: 78 F (26 C)
Dew Point: 77 F (25 C)
Relative Humidity: 94%
Pressure (altimeter): 29.83 in. Hg (1010 hPa)
ob: WAPP 262300Z VRB02KT 9999 SCT019 26/25 Q1010 NOSIG
cycle: 23

Station Type Date Time Source
WAPP TAF 2015/06/30 00:57 UTC NOAA

TAF WAPP 302300Z 0100/0124 34006KT 9999 SCT018
TEMPO 0101/0104 7000 -RA BKN017
BECMG 0105/0107 21006KT
BECMG 0109/0111 32006KT

Example: see airport list